Washington, DC (20029)

11:27 PM EST on March 02, 2015 (GMT -0500)
Capitol Hill, Washington, DC USA | Change Station
CLOSE
Current Station
Personal Weather Station
Location: Washington, DC
Elevation: 92 ft
Nearby Weather Stations
Active Advisory: Winter Weather Advisory

Elev 92 ft 38.89 °N, 76.99 °W | Updated 5 minutes ago

Clear
Clear
32.1 °F
Feels Like 32 °F
N
0.0
Wind Variable Wind from NNW

Today
High -- | Low -- °F
--% Chance of Precip.
Yesterday
High -- | Low -- °F
Precip. -- in
6:39 AM 6:01 PM
Waxing Gibbous, 94% visible
Pressure 30.45 in
Visibility 10.0 miles
Clouds Few 25000 ft
Windchill 32 °F
Dew Point 20 °F
Humidity 61%
Rainfall 0.15 in
Snow Depth Not available.
UV 0 out of 12
Pollen 5.30 out of 12
Air Quality Not available.
Flu Activity Not available.
METAR KDCA 030352Z 34007KT 10SM FEW250 01/M09 A3045 RMK AO2 SLP310 T00111089 $

More Conditions Fewer Conditions

Pressure 30.45 in
Visibility 10.0 miles
Clouds Few 25000 ft
Windchill 32 °F
Dew Point 20 °F
Humidity 61%
Rainfall 0.15 in
Snow Depth Not available.
UV 0 out of 12
Pollen 5.30 out of 12
Air Quality Not available.
Flu Activity Not available.
METAR KDCA 030352Z 34007KT 10SM FEW250 01/M09 A3045 RMK AO2 SLP310 T00111089 $

More Conditions Fewer Conditions

10-Day Weather Forecast

Almanac

Astronomy

Mar. 02, 2015 Rise Set
Actual Time
Civil Twilight
Nautical Twilight
Astronomical Twilight
Moon
Length of Visible Light
Length of Day
Tomorrow will be .
, % of the Moon is Illuminated

Today's Extremes

State Highs State Lows

Community

WunderPhotos

Upload Photos

1,802,064 photos uploaded!

WunderBlogs® & News

Nearby

Air Quality

  Air Quality AQ Index Pollutant
Not available.

Snow Depth

Station Depth Elevation

Earthquake Activity

City Distance Mag. Time & Date
Minimum magnitude displayed is 2.5.

Coastal Water Temperatures

Place Temperature

Nearby Weather Stations

Winter Weather Advisory
Statement as of 9:08 PM EST on March 02, 2015

... Winter Weather Advisory remains in effect from 9 am to 10 PM
EST Tuesday...

* locations... the Baltimore and Washington metropolitan areas
and north central Maryland.

* Hazard types... snow... sleet and freezing rain.

* Accumulations... snow and sleet accumulation of up to 1
inch... along with up to one tenth of an inch of ice.

* Timing... Tuesday morning through late Tuesday evening.

* Impacts... roads will be snow and ice covered. Traveling will be
dangerous.

* Winds... southeast 5 to 15 mph with gusts up to 25 mph.

* Temperatures... in the upper 20s.

Precautionary/preparedness actions...

A Winter Weather Advisory means that periods of snow... sleet... or
freezing rain will cause travel difficulties. Be prepared for
slippery roads and limited visibilities... and use caution while
driving.